sim
Sign-in with your pilot id or email,
or register
Callsign
Passwort

Schedule Details

Flight Number: RYR6302 (1)
Departure: Barcelona El Prat Airport (LEBL) at 15:50
Arrival: Fuerteventura Airport (GCFV) at 19:10
Route: Ryanair Passenger Schedule. Enter filed route here before submitting Pirep.

Weather Information
Getting current METAR information for LEBL 211800Z 21006KT 170V240 9999 FEW022 25/20 Q1018 NOSIG
Getting current METAR information for GCFV 211800Z 01019KT CAVOK 26/18 Q1013

Schedule Frequency

Route Map